sensor_id;sensor_type;location;lat;lon;timestamp;temperature;humidity
9885;DHT22;4981;50.966;4.842;2022-07-29T00:01:29;19.70;1.00
9885;DHT22;4981;50.966;4.842;2022-07-29T00:03:56;19.80;1.00
9885;DHT22;4981;50.966;4.842;2022-07-29T00:06:26;19.80;1.00
9885;DHT22;4981;50.966;4.842;2022-07-29T00:08:53;19.80;1.00
9885;DHT22;4981;50.966;4.842;2022-07-29T00:11:20;20.20;1.00
9885;DHT22;4981;50.966;4.842;2022-07-29T00:13:48;20.20;1.00
9885;DHT22;4981;50.966;4.842;2022-07-29T00:16:15;20.20;1.00
9885;DHT22;4981;50.966;4.842;2022-07-29T00:18:42;20.20;1.00
9885;DHT22;4981;50.966;4.842;2022-07-29T00:21:10;20.20;1.00
9885;DHT22;4981;50.966;4.842;2022-07-29T00:23:39;20.60;1.00
9885;DHT22;4981;50.966;4.842;2022-07-29T00:26:06;20.00;1.00
9885;DHT22;4981;50.966;4.842;2022-07-29T00:28:33;19.90;1.00
9885;DHT22;4981;50.966;4.842;2022-07-29T00:31:00;19.70;1.00
9885;DHT22;4981;50.966;4.842;2022-07-29T00:33:29;19.70;1.00
9885;DHT22;4981;50.966;4.842;2022-07-29T00:35:59;19.60;1.00
9885;DHT22;4981;50.966;4.842;2022-07-29T00:38:25;19.60;1.00
9885;DHT22;4981;50.966;4.842;2022-07-29T00:40:54;19.50;1.00
9885;DHT22;4981;50.966;4.842;2022-07-29T00:43:21;19.40;1.00
9885;DHT22;4981;50.966;4.842;2022-07-29T00:45:48;19.50;1.00
9885;DHT22;4981;50.966;4.842;2022-07-29T00:48:16;19.40;1.00
9885;DHT22;4981;50.966;4.842;2022-07-29T00:50:43;19.50;1.00
9885;DHT22;4981;50.966;4.842;2022-07-29T00:53:12;19.40;1.00
9885;DHT22;4981;50.966;4.842;2022-07-29T00:55:39;19.40;1.00
9885;DHT22;4981;50.966;4.842;2022-07-29T00:58:08;19.40;1.00
9885;DHT22;4981;50.966;4.842;2022-07-29T01:00:36;19.30;1.00
9885;DHT22;4981;50.966;4.842;2022-07-29T01:03:03;19.30;1.00
9885;DHT22;4981;50.966;4.842;2022-07-29T01:05:31;19.20;1.00
9885;DHT22;4981;50.966;4.842;2022-07-29T01:07:59;19.20;1.00
9885;DHT22;4981;50.966;4.842;2022-07-29T01:10:27;19.10;1.00
9885;DHT22;4981;50.966;4.842;2022-07-29T01:12:57;19.10;1.00
9885;DHT22;4981;50.966;4.842;2022-07-29T01:15:27;19.10;1.00
9885;DHT22;4981;50.966;4.842;2022-07-29T01:18:01;19.00;1.00
9885;DHT22;4981;50.966;4.842;2022-07-29T01:20:52;19.10;1.00
9885;DHT22;4981;50.966;4.842;2022-07-29T01:23:48;19.20;1.00
9885;DHT22;4981;50.966;4.842;2022-07-29T01:26:38;19.10;1.00
9885;DHT22;4981;50.966;4.842;2022-07-29T01:29:12;19.10;1.00
9885;DHT22;4981;50.966;4.842;2022-07-29T01:31:47;19.10;1.00
9885;DHT22;4981;50.966;4.842;2022-07-29T01:34:20;18.50;1.00
9885;DHT22;4981;50.966;4.842;2022-07-29T01:36:51;19.20;1.00
9885;DHT22;4981;50.966;4.842;2022-07-29T01:39:25;19.50;1.00
9885;DHT22;4981;50.966;4.842;2022-07-29T01:42:02;19.30;1.00
9885;DHT22;4981;50.966;4.842;2022-07-29T01:44:39;19.90;1.00
9885;DHT22;4981;50.966;4.842;2022-07-29T01:47:12;19.70;1.00
9885;DHT22;4981;50.966;4.842;2022-07-29T01:49:46;19.00;1.00
9885;DHT22;4981;50.966;4.842;2022-07-29T01:52:19;18.70;1.00
9885;DHT22;4981;50.966;4.842;2022-07-29T01:54:52;19.40;1.00
9885;DHT22;4981;50.966;4.842;2022-07-29T01:57:26;19.30;1.00
9885;DHT22;4981;50.966;4.842;2022-07-29T01:59:58;18.90;1.00
9885;DHT22;4981;50.966;4.842;2022-07-29T02:02:27;18.70;1.00
9885;DHT22;4981;50.966;4.842;2022-07-29T02:04:55;18.70;1.00
9885;DHT22;4981;50.966;4.842;2022-07-29T02:07:24;18.60;1.00
9885;DHT22;4981;50.966;4.842;2022-07-29T02:09:55;18.50;1.00
9885;DHT22;4981;50.966;4.842;2022-07-29T02:12:24;18.80;1.00
9885;DHT22;4981;50.966;4.842;2022-07-29T02:14:53;18.90;1.00
9885;DHT22;4981;50.966;4.842;2022-07-29T02:17:27;18.80;1.00
9885;DHT22;4981;50.966;4.842;2022-07-29T02:19:57;18.80;1.00
9885;DHT22;4981;50.966;4.842;2022-07-29T02:22:26;18.70;1.00
9885;DHT22;4981;50.966;4.842;2022-07-29T02:24:55;18.80;1.00
9885;DHT22;4981;50.966;4.842;2022-07-29T02:27:24;18.60;1.00
9885;DHT22;4981;50.966;4.842;2022-07-29T02:29:53;18.80;1.00
9885;DHT22;4981;50.966;4.842;2022-07-29T02:32:24;18.50;1.00
9885;DHT22;4981;50.966;4.842;2022-07-29T02:34:53;18.20;1.00
9885;DHT22;4981;50.966;4.842;2022-07-29T02:37:21;18.10;1.00
9885;DHT22;4981;50.966;4.842;2022-07-29T02:39:53;18.00;1.00
9885;DHT22;4981;50.966;4.842;2022-07-29T02:42:21;18.00;1.00
9885;DHT22;4981;50.966;4.842;2022-07-29T02:44:50;17.90;1.00
9885;DHT22;4981;50.966;4.842;2022-07-29T02:47:21;18.00;1.00
9885;DHT22;4981;50.966;4.842;2022-07-29T02:49:55;18.20;1.00
9885;DHT22;4981;50.966;4.842;2022-07-29T02:52:26;18.20;1.00
9885;DHT22;4981;50.966;4.842;2022-07-29T02:54:56;17.90;1.00
9885;DHT22;4981;50.966;4.842;2022-07-29T02:57:31;18.00;1.00
9885;DHT22;4981;50.966;4.842;2022-07-29T03:00:03;18.00;1.00
9885;DHT22;4981;50.966;4.842;2022-07-29T03:02:34;18.20;1.00
9885;DHT22;4981;50.966;4.842;2022-07-29T03:05:05;18.00;1.00
9885;DHT22;4981;50.966;4.842;2022-07-29T03:07:34;17.80;1.00
9885;DHT22;4981;50.966;4.842;2022-07-29T03:10:04;17.70;1.00
9885;DHT22;4981;50.966;4.842;2022-07-29T03:12:31;17.70;1.00
9885;DHT22;4981;50.966;4.842;2022-07-29T03:14:59;17.60;1.00
9885;DHT22;4981;50.966;4.842;2022-07-29T03:17:27;17.50;1.00
9885;DHT22;4981;50.966;4.842;2022-07-29T03:19:55;17.30;1.00
9885;DHT22;4981;50.966;4.842;2022-07-29T03:22:24;17.30;1.00
9885;DHT22;4981;50.966;4.842;2022-07-29T03:24:52;17.70;1.00
9885;DHT22;4981;50.966;4.842;2022-07-29T03:27:19;17.20;1.00
9885;DHT22;4981;50.966;4.842;2022-07-29T03:29:46;17.10;1.00
9885;DHT22;4981;50.966;4.842;2022-07-29T03:32:14;17.00;1.00
9885;DHT22;4981;50.966;4.842;2022-07-29T03:34:42;17.10;1.00
9885;DHT22;4981;50.966;4.842;2022-07-29T03:37:09;16.90;1.00
9885;DHT22;4981;50.966;4.842;2022-07-29T03:39:40;16.80;1.00
9885;DHT22;4981;50.966;4.842;2022-07-29T03:42:11;16.90;1.00
9885;DHT22;4981;50.966;4.842;2022-07-29T03:44:41;16.70;1.00
9885;DHT22;4981;50.966;4.842;2022-07-29T03:47:11;16.70;1.00
9885;DHT22;4981;50.966;4.842;2022-07-29T03:49:40;16.70;1.00
9885;DHT22;4981;50.966;4.842;2022-07-29T03:52:08;16.70;1.00
9885;DHT22;4981;50.966;4.842;2022-07-29T03:54:36;16.70;1.00
9885;DHT22;4981;50.966;4.842;2022-07-29T03:57:05;16.60;1.00
9885;DHT22;4981;50.966;4.842;2022-07-29T03:59:34;16.80;1.00
9885;DHT22;4981;50.966;4.842;2022-07-29T04:02:04;16.60;1.00
9885;DHT22;4981;50.966;4.842;2022-07-29T04:04:33;16.60;1.00
9885;DHT22;4981;50.966;4.842;2022-07-29T04:07:00;16.50;1.00
9885;DHT22;4981;50.966;4.842;2022-07-29T04:09:28;16.30;1.00
9885;DHT22;4981;50.966;4.842;2022-07-29T04:11:55;16.30;1.00
9885;DHT22;4981;50.966;4.842;2022-07-29T04:14:24;16.30;1.00
9885;DHT22;4981;50.966;4.842;2022-07-29T04:16:52;16.30;1.00
9885;DHT22;4981;50.966;4.842;2022-07-29T04:19:20;16.30;1.00
9885;DHT22;4981;50.966;4.842;2022-07-29T04:21:48;16.20;1.00
9885;DHT22;4981;50.966;4.842;2022-07-29T04:24:15;16.10;1.00
9885;DHT22;4981;50.966;4.842;2022-07-29T04:26:43;16.10;1.00
9885;DHT22;4981;50.966;4.842;2022-07-29T04:29:11;16.20;1.00
9885;DHT22;4981;50.966;4.842;2022-07-29T04:31:41;16.10;1.00
9885;DHT22;4981;50.966;4.842;2022-07-29T04:34:09;15.90;1.00
9885;DHT22;4981;50.966;4.842;2022-07-29T04:36:37;15.80;1.00
9885;DHT22;4981;50.966;4.842;2022-07-29T04:39:04;15.90;1.00
9885;DHT22;4981;50.966;4.842;2022-07-29T04:41:32;15.80;1.00
9885;DHT22;4981;50.966;4.842;2022-07-29T04:43:59;15.60;1.00
9885;DHT22;4981;50.966;4.842;2022-07-29T04:46:30;15.80;1.00
9885;DHT22;4981;50.966;4.842;2022-07-29T04:48:59;15.90;1.00
9885;DHT22;4981;50.966;4.842;2022-07-29T04:51:27;15.90;1.00
9885;DHT22;4981;50.966;4.842;2022-07-29T04:53:54;15.90;1.00
9885;DHT22;4981;50.966;4.842;2022-07-29T04:56:21;15.90;1.00
9885;DHT22;4981;50.966;4.842;2022-07-29T04:58:49;16.00;1.00
9885;DHT22;4981;50.966;4.842;2022-07-29T05:01:19;16.00;1.00
9885;DHT22;4981;50.966;4.842;2022-07-29T05:03:46;16.10;1.00
9885;DHT22;4981;50.966;4.842;2022-07-29T05:06:15;16.30;1.00
9885;DHT22;4981;50.966;4.842;2022-07-29T05:08:43;16.10;1.00
9885;DHT22;4981;50.966;4.842;2022-07-29T05:11:10;16.10;1.00
9885;DHT22;4981;50.966;4.842;2022-07-29T05:13:37;16.00;1.00
9885;DHT22;4981;50.966;4.842;2022-07-29T05:16:05;16.00;1.00
9885;DHT22;4981;50.966;4.842;2022-07-29T05:18:32;16.10;1.00
9885;DHT22;4981;50.966;4.842;2022-07-29T05:21:00;16.20;1.00
9885;DHT22;4981;50.966;4.842;2022-07-29T05:23:29;16.30;1.00
9885;DHT22;4981;50.966;4.842;2022-07-29T05:25:56;16.30;1.00
9885;DHT22;4981;50.966;4.842;2022-07-29T05:28:23;16.30;1.00
9885;DHT22;4981;50.966;4.842;2022-07-29T05:30:51;16.30;1.00
9885;DHT22;4981;50.966;4.842;2022-07-29T05:33:18;16.70;1.00
9885;DHT22;4981;50.966;4.842;2022-07-29T05:35:46;17.40;1.00
9885;DHT22;4981;50.966;4.842;2022-07-29T05:38:13;17.00;1.00
9885;DHT22;4981;50.966;4.842;2022-07-29T05:40:42;16.70;1.00
9885;DHT22;4981;50.966;4.842;2022-07-29T05:43:09;16.80;1.00
9885;DHT22;4981;50.966;4.842;2022-07-29T05:45:38;16.70;1.00
9885;DHT22;4981;50.966;4.842;2022-07-29T05:48:06;16.70;1.00
9885;DHT22;4981;50.966;4.842;2022-07-29T05:50:33;16.70;1.00
9885;DHT22;4981;50.966;4.842;2022-07-29T05:53:00;17.90;1.00
9885;DHT22;4981;50.966;4.842;2022-07-29T05:55:28;17.70;1.00
9885;DHT22;4981;50.966;4.842;2022-07-29T05:57:57;17.10;1.00
9885;DHT22;4981;50.966;4.842;2022-07-29T06:00:24;16.90;1.00
9885;DHT22;4981;50.966;4.842;2022-07-29T06:02:52;16.90;1.00
9885;DHT22;4981;50.966;4.842;2022-07-29T06:05:19;17.10;1.00
9885;DHT22;4981;50.966;4.842;2022-07-29T06:07:47;17.00;1.00
9885;DHT22;4981;50.966;4.842;2022-07-29T06:10:14;17.20;1.00
9885;DHT22;4981;50.966;4.842;2022-07-29T06:12:44;17.20;1.00
9885;DHT22;4981;50.966;4.842;2022-07-29T06:15:13;17.20;1.00
9885;DHT22;4981;50.966;4.842;2022-07-29T06:17:41;17.30;1.00
9885;DHT22;4981;50.966;4.842;2022-07-29T06:20:10;17.60;1.00
9885;DHT22;4981;50.966;4.842;2022-07-29T06:22:37;17.50;1.00
9885;DHT22;4981;50.966;4.842;2022-07-29T06:25:05;17.40;1.00
9885;DHT22;4981;50.966;4.842;2022-07-29T06:27:33;17.60;1.00
9885;DHT22;4981;50.966;4.842;2022-07-29T06:30:00;17.60;1.00
9885;DHT22;4981;50.966;4.842;2022-07-29T06:32:29;17.60;1.00
9885;DHT22;4981;50.966;4.842;2022-07-29T06:34:57;18.10;1.00
9885;DHT22;4981;50.966;4.842;2022-07-29T06:37:24;18.10;1.00
9885;DHT22;4981;50.966;4.842;2022-07-29T06:39:51;17.80;1.00
9885;DHT22;4981;50.966;4.842;2022-07-29T06:42:42;17.80;1.00
9885;DHT22;4981;50.966;4.842;2022-07-29T06:45:10;17.70;1.00
9885;DHT22;4981;50.966;4.842;2022-07-29T06:47:39;17.70;1.00
9885;DHT22;4981;50.966;4.842;2022-07-29T06:50:07;18.00;1.00
9885;DHT22;4981;50.966;4.842;2022-07-29T06:52:37;17.80;1.00
9885;DHT22;4981;50.966;4.842;2022-07-29T06:55:06;17.60;1.00
9885;DHT22;4981;50.966;4.842;2022-07-29T06:57:34;17.70;1.00
9885;DHT22;4981;50.966;4.842;2022-07-29T07:00:02;17.80;1.00
9885;DHT22;4981;50.966;4.842;2022-07-29T07:02:30;18.10;1.00
9885;DHT22;4981;50.966;4.842;2022-07-29T07:04:59;18.10;1.00
9885;DHT22;4981;50.966;4.842;2022-07-29T07:07:27;18.00;1.00
9885;DHT22;4981;50.966;4.842;2022-07-29T07:09:54;18.00;1.00
9885;DHT22;4981;50.966;4.842;2022-07-29T07:12:21;18.00;1.00
9885;DHT22;4981;50.966;4.842;2022-07-29T07:14:49;18.10;1.00
9885;DHT22;4981;50.966;4.842;2022-07-29T07:17:16;18.20;1.00
9885;DHT22;4981;50.966;4.842;2022-07-29T07:19:43;18.20;1.00
9885;DHT22;4981;50.966;4.842;2022-07-29T07:22:12;18.70;1.00
9885;DHT22;4981;50.966;4.842;2022-07-29T07:24:40;18.40;1.00
9885;DHT22;4981;50.966;4.842;2022-07-29T07:27:07;18.50;1.00
9885;DHT22;4981;50.966;4.842;2022-07-29T07:29:35;18.50;1.00
9885;DHT22;4981;50.966;4.842;2022-07-29T07:32:02;18.70;1.00
9885;DHT22;4981;50.966;4.842;2022-07-29T07:34:30;18.90;1.00
9885;DHT22;4981;50.966;4.842;2022-07-29T07:36:57;18.80;1.00
9885;DHT22;4981;50.966;4.842;2022-07-29T07:39:26;18.90;1.00
9885;DHT22;4981;50.966;4.842;2022-07-29T07:41:53;18.70;1.00
9885;DHT22;4981;50.966;4.842;2022-07-29T07:44:20;18.80;1.00
9885;DHT22;4981;50.966;4.842;2022-07-29T07:46:48;18.80;1.00
9885;DHT22;4981;50.966;4.842;2022-07-29T07:49:15;18.90;1.00
9885;DHT22;4981;50.966;4.842;2022-07-29T07:51:42;18.70;1.00
9885;DHT22;4981;50.966;4.842;2022-07-29T07:54:10;18.90;1.00
9885;DHT22;4981;50.966;4.842;2022-07-29T07:56:39;18.90;1.00
9885;DHT22;4981;50.966;4.842;2022-07-29T07:59:07;18.80;1.00
9885;DHT22;4981;50.966;4.842;2022-07-29T08:01:34;19.10;1.00
9885;DHT22;4981;50.966;4.842;2022-07-29T08:04:01;19.10;1.00
9885;DHT22;4981;50.966;4.842;2022-07-29T08:06:32;19.10;1.00
9885;DHT22;4981;50.966;4.842;2022-07-29T08:09:00;19.10;1.00
9885;DHT22;4981;50.966;4.842;2022-07-29T08:11:27;19.20;1.00
9885;DHT22;4981;50.966;4.842;2022-07-29T08:13:57;19.20;1.00
9885;DHT22;4981;50.966;4.842;2022-07-29T08:16:27;19.40;1.00
9885;DHT22;4981;50.966;4.842;2022-07-29T08:18:54;19.40;1.00
9885;DHT22;4981;50.966;4.842;2022-07-29T08:21:23;19.60;1.00
9885;DHT22;4981;50.966;4.842;2022-07-29T08:23:51;19.50;1.00
9885;DHT22;4981;50.966;4.842;2022-07-29T08:26:40;19.60;1.00
9885;DHT22;4981;50.966;4.842;2022-07-29T08:29:09;20.20;1.00
9885;DHT22;4981;50.966;4.842;2022-07-29T08:31:37;20.10;1.00
9885;DHT22;4981;50.966;4.842;2022-07-29T08:34:05;20.00;1.00
9885;DHT22;4981;50.966;4.842;2022-07-29T08:36:33;20.30;1.00
9885;DHT22;4981;50.966;4.842;2022-07-29T08:39:02;20.50;1.00
9885;DHT22;4981;50.966;4.842;2022-07-29T08:41:29;20.40;1.00
9885;DHT22;4981;50.966;4.842;2022-07-29T08:43:57;20.30;1.00
9885;DHT22;4981;50.966;4.842;2022-07-29T08:46:26;20.30;1.00
9885;DHT22;4981;50.966;4.842;2022-07-29T08:48:55;20.20;1.00
9885;DHT22;4981;50.966;4.842;2022-07-29T08:51:23;20.40;1.00
9885;DHT22;4981;50.966;4.842;2022-07-29T08:53:53;20.50;1.00
9885;DHT22;4981;50.966;4.842;2022-07-29T08:56:22;20.70;1.00
9885;DHT22;4981;50.966;4.842;2022-07-29T08:58:49;20.50;1.00
9885;DHT22;4981;50.966;4.842;2022-07-29T09:01:21;20.70;1.00
9885;DHT22;4981;50.966;4.842;2022-07-29T09:03:55;20.90;1.00
9885;DHT22;4981;50.966;4.842;2022-07-29T09:06:24;20.80;1.00
9885;DHT22;4981;50.966;4.842;2022-07-29T09:08:54;21.30;1.00
9885;DHT22;4981;50.966;4.842;2022-07-29T09:11:21;21.30;1.00
9885;DHT22;4981;50.966;4.842;2022-07-29T09:13:49;21.70;1.00
9885;DHT22;4981;50.966;4.842;2022-07-29T09:16:16;22.30;1.00
9885;DHT22;4981;50.966;4.842;2022-07-29T09:18:45;21.90;1.00
9885;DHT22;4981;50.966;4.842;2022-07-29T09:21:16;21.70;1.00
9885;DHT22;4981;50.966;4.842;2022-07-29T09:24:03;22.30;1.00
9885;DHT22;4981;50.966;4.842;2022-07-29T09:26:33;21.60;1.00
9885;DHT22;4981;50.966;4.842;2022-07-29T09:29:08;21.80;1.00
9885;DHT22;4981;50.966;4.842;2022-07-29T09:31:37;22.00;1.00
9885;DHT22;4981;50.966;4.842;2022-07-29T09:34:09;21.90;1.00
9885;DHT22;4981;50.966;4.842;2022-07-29T09:36:42;22.20;1.00
9885;DHT22;4981;50.966;4.842;2022-07-29T09:39:11;22.60;1.00
9885;DHT22;4981;50.966;4.842;2022-07-29T09:41:46;22.90;1.00
9885;DHT22;4981;50.966;4.842;2022-07-29T09:44:13;22.30;1.00
9885;DHT22;4981;50.966;4.842;2022-07-29T09:47:02;21.90;1.00
9885;DHT22;4981;50.966;4.842;2022-07-29T09:49:31;22.10;1.00
9885;DHT22;4981;50.966;4.842;2022-07-29T09:52:09;22.10;1.00
9885;DHT22;4981;50.966;4.842;2022-07-29T09:54:37;21.90;1.00
9885;DHT22;4981;50.966;4.842;2022-07-29T09:57:05;21.70;1.00
9885;DHT22;4981;50.966;4.842;2022-07-29T09:59:34;22.00;1.00
9885;DHT22;4981;50.966;4.842;2022-07-29T10:02:01;22.20;1.00
9885;DHT22;4981;50.966;4.842;2022-07-29T10:04:39;22.30;1.00
9885;DHT22;4981;50.966;4.842;2022-07-29T10:07:09;22.20;1.00
9885;DHT22;4981;50.966;4.842;2022-07-29T10:09:36;22.20;1.00
9885;DHT22;4981;50.966;4.842;2022-07-29T10:12:09;22.50;1.00
9885;DHT22;4981;50.966;4.842;2022-07-29T10:14:40;22.50;1.00
9885;DHT22;4981;50.966;4.842;2022-07-29T10:17:09;22.40;1.00
9885;DHT22;4981;50.966;4.842;2022-07-29T10:19:38;22.30;1.00
9885;DHT22;4981;50.966;4.842;2022-07-29T10:22:08;22.60;1.00
9885;DHT22;4981;50.966;4.842;2022-07-29T10:24:37;22.70;1.00
9885;DHT22;4981;50.966;4.842;2022-07-29T10:27:06;22.80;1.00
9885;DHT22;4981;50.966;4.842;2022-07-29T10:29:34;22.70;1.00
9885;DHT22;4981;50.966;4.842;2022-07-29T10:32:16;23.20;1.00
9885;DHT22;4981;50.966;4.842;2022-07-29T10:35:27;22.80;1.00
9885;DHT22;4981;50.966;4.842;2022-07-29T10:38:10;23.20;1.00
9885;DHT22;4981;50.966;4.842;2022-07-29T10:40:49;23.50;1.00
9885;DHT22;4981;50.966;4.842;2022-07-29T10:43:40;23.30;1.00
9885;DHT22;4981;50.966;4.842;2022-07-29T10:46:10;23.20;1.00
9885;DHT22;4981;50.966;4.842;2022-07-29T10:49:09;23.20;1.00
9885;DHT22;4981;50.966;4.842;2022-07-29T10:52:01;23.30;1.00
9885;DHT22;4981;50.966;4.842;2022-07-29T10:54:45;23.20;1.00
9885;DHT22;4981;50.966;4.842;2022-07-29T10:57:18;23.20;1.00
9885;DHT22;4981;50.966;4.842;2022-07-29T10:59:47;23.50;1.00
9885;DHT22;4981;50.966;4.842;2022-07-29T11:02:46;23.80;1.00
9885;DHT22;4981;50.966;4.842;2022-07-29T11:05:18;23.60;1.00
9885;DHT22;4981;50.966;4.842;2022-07-29T11:08:17;23.50;1.00
9885;DHT22;4981;50.966;4.842;2022-07-29T11:10:48;23.90;1.00
9885;DHT22;4981;50.966;4.842;2022-07-29T11:13:46;24.30;1.00
9885;DHT22;4981;50.966;4.842;2022-07-29T11:16:16;24.30;1.00
9885;DHT22;4981;50.966;4.842;2022-07-29T11:19:22;24.10;1.00
9885;DHT22;4981;50.966;4.842;2022-07-29T11:21:50;24.30;1.00
9885;DHT22;4981;50.966;4.842;2022-07-29T11:24:20;24.10;1.00
9885;DHT22;4981;50.966;4.842;2022-07-29T11:30:07;24.20;1.00
9885;DHT22;4981;50.966;4.842;2022-07-29T11:32:36;24.30;1.00
9885;DHT22;4981;50.966;4.842;2022-07-29T11:35:15;24.30;1.00
9885;DHT22;4981;50.966;4.842;2022-07-29T11:37:46;24.40;1.00
9885;DHT22;4981;50.966;4.842;2022-07-29T11:40:16;24.60;1.00
9885;DHT22;4981;50.966;4.842;2022-07-29T11:42:49;24.80;1.00
9885;DHT22;4981;50.966;4.842;2022-07-29T11:45:45;24.60;1.00
9885;DHT22;4981;50.966;4.842;2022-07-29T11:48:17;24.60;1.00
9885;DHT22;4981;50.966;4.842;2022-07-29T11:50:45;24.50;1.00
9885;DHT22;4981;50.966;4.842;2022-07-29T11:53:13;24.50;1.00
9885;DHT22;4981;50.966;4.842;2022-07-29T11:55:42;24.30;1.00
9885;DHT22;4981;50.966;4.842;2022-07-29T11:58:09;24.20;1.00
9885;DHT22;4981;50.966;4.842;2022-07-29T12:00:39;24.30;1.00
9885;DHT22;4981;50.966;4.842;2022-07-29T12:03:09;24.40;1.00
9885;DHT22;4981;50.966;4.842;2022-07-29T12:05:39;24.60;1.00
9885;DHT22;4981;50.966;4.842;2022-07-29T12:08:13;24.80;1.00
9885;DHT22;4981;50.966;4.842;2022-07-29T12:10:42;25.30;1.00
9885;DHT22;4981;50.966;4.842;2022-07-29T12:13:12;26.40;1.60
9885;DHT22;4981;50.966;4.842;2022-07-29T12:15:39;27.00;1.00
9885;DHT22;4981;50.966;4.842;2022-07-29T12:18:26;27.20;1.00
9885;DHT22;4981;50.966;4.842;2022-07-29T12:20:57;26.10;1.00
9885;DHT22;4981;50.966;4.842;2022-07-29T12:23:25;26.60;1.00
9885;DHT22;4981;50.966;4.842;2022-07-29T12:25:52;27.20;1.00
9885;DHT22;4981;50.966;4.842;2022-07-29T12:28:21;28.90;1.00
9885;DHT22;4981;50.966;4.842;2022-07-29T12:30:49;29.90;1.00
9885;DHT22;4981;50.966;4.842;2022-07-29T12:33:19;30.80;1.00
9885;DHT22;4981;50.966;4.842;2022-07-29T12:35:50;30.50;1.00
9885;DHT22;4981;50.966;4.842;2022-07-29T12:38:18;30.60;1.00
9885;DHT22;4981;50.966;4.842;2022-07-29T12:40:47;29.50;1.00
9885;DHT22;4981;50.966;4.842;2022-07-29T12:43:17;28.90;1.00
9885;DHT22;4981;50.966;4.842;2022-07-29T12:45:47;28.80;1.00
9885;DHT22;4981;50.966;4.842;2022-07-29T12:48:15;27.60;1.00
9885;DHT22;4981;50.966;4.842;2022-07-29T12:50:56;28.60;1.00
9885;DHT22;4981;50.966;4.842;2022-07-29T12:53:23;31.00;1.00
9885;DHT22;4981;50.966;4.842;2022-07-29T12:55:53;30.70;1.00
9885;DHT22;4981;50.966;4.842;2022-07-29T12:58:29;29.00;1.00
9885;DHT22;4981;50.966;4.842;2022-07-29T13:01:08;28.70;1.00
9885;DHT22;4981;50.966;4.842;2022-07-29T13:03:47;29.10;1.00
9885;DHT22;4981;50.966;4.842;2022-07-29T13:06:32;30.90;1.00
9885;DHT22;4981;50.966;4.842;2022-07-29T13:09:11;32.70;1.00
9885;DHT22;4981;50.966;4.842;2022-07-29T13:11:40;32.70;1.00
9885;DHT22;4981;50.966;4.842;2022-07-29T13:14:09;32.10;1.00
9885;DHT22;4981;50.966;4.842;2022-07-29T13:19:33;29.40;1.00
9885;DHT22;4981;50.966;4.842;2022-07-29T13:22:03;29.30;1.00
9885;DHT22;4981;50.966;4.842;2022-07-29T13:24:31;30.50;1.00
9885;DHT22;4981;50.966;4.842;2022-07-29T13:26:58;30.90;1.00
9885;DHT22;4981;50.966;4.842;2022-07-29T13:29:25;30.80;1.00
9885;DHT22;4981;50.966;4.842;2022-07-29T13:31:53;32.00;1.00
9885;DHT22;4981;50.966;4.842;2022-07-29T13:34:20;32.80;1.00
9885;DHT22;4981;50.966;4.842;2022-07-29T13:36:49;34.10;1.00
9885;DHT22;4981;50.966;4.842;2022-07-29T13:39:18;34.30;1.00
9885;DHT22;4981;50.966;4.842;2022-07-29T13:41:45;33.70;1.00
9885;DHT22;4981;50.966;4.842;2022-07-29T13:44:13;32.90;1.00
9885;DHT22;4981;50.966;4.842;2022-07-29T13:46:40;34.80;1.00
9885;DHT22;4981;50.966;4.842;2022-07-29T13:49:07;33.60;1.00
9885;DHT22;4981;50.966;4.842;2022-07-29T13:51:36;33.40;1.00
9885;DHT22;4981;50.966;4.842;2022-07-29T13:54:04;32.80;1.00
9885;DHT22;4981;50.966;4.842;2022-07-29T13:56:33;30.40;1.00
9885;DHT22;4981;50.966;4.842;2022-07-29T13:59:01;31.20;1.00
9885;DHT22;4981;50.966;4.842;2022-07-29T14:01:28;30.70;1.00
9885;DHT22;4981;50.966;4.842;2022-07-29T14:03:56;30.70;1.00
9885;DHT22;4981;50.966;4.842;2022-07-29T14:06:23;32.00;1.00
9885;DHT22;4981;50.966;4.842;2022-07-29T14:08:50;33.30;1.00
9885;DHT22;4981;50.966;4.842;2022-07-29T14:11:18;34.60;1.00
9885;DHT22;4981;50.966;4.842;2022-07-29T14:13:47;33.20;1.00
9885;DHT22;4981;50.966;4.842;2022-07-29T14:16:14;31.20;1.00
9885;DHT22;4981;50.966;4.842;2022-07-29T14:18:41;29.30;1.00
9885;DHT22;4981;50.966;4.842;2022-07-29T14:21:09;30.50;1.00
9885;DHT22;4981;50.966;4.842;2022-07-29T14:23:36;30.10;1.00
9885;DHT22;4981;50.966;4.842;2022-07-29T14:26:04;29.70;1.00
9885;DHT22;4981;50.966;4.842;2022-07-29T14:28:31;30.10;1.00
9885;DHT22;4981;50.966;4.842;2022-07-29T14:31:00;31.80;1.00
9885;DHT22;4981;50.966;4.842;2022-07-29T14:33:27;30.70;1.00
9885;DHT22;4981;50.966;4.842;2022-07-29T14:35:55;29.90;1.00
9885;DHT22;4981;50.966;4.842;2022-07-29T14:38:22;30.10;1.00
9885;DHT22;4981;50.966;4.842;2022-07-29T14:40:50;28.70;1.00
9885;DHT22;4981;50.966;4.842;2022-07-29T14:43:17;29.40;1.00
9885;DHT22;4981;50.966;4.842;2022-07-29T14:45:44;29.10;1.00
9885;DHT22;4981;50.966;4.842;2022-07-29T14:48:13;28.60;1.00
9885;DHT22;4981;50.966;4.842;2022-07-29T14:50:40;28.50;1.00
9885;DHT22;4981;50.966;4.842;2022-07-29T14:53:08;27.50;1.00
9885;DHT22;4981;50.966;4.842;2022-07-29T14:55:37;27.70;1.00
9885;DHT22;4981;50.966;4.842;2022-07-29T14:58:05;27.00;1.00
9885;DHT22;4981;50.966;4.842;2022-07-29T15:00:32;27.30;1.00
9885;DHT22;4981;50.966;4.842;2022-07-29T15:03:00;26.90;1.00
9885;DHT22;4981;50.966;4.842;2022-07-29T15:05:29;27.10;1.00
9885;DHT22;4981;50.966;4.842;2022-07-29T15:07:57;27.60;1.00
9885;DHT22;4981;50.966;4.842;2022-07-29T15:10:24;27.60;1.00
9885;DHT22;4981;50.966;4.842;2022-07-29T15:12:52;27.60;1.00
9885;DHT22;4981;50.966;4.842;2022-07-29T15:15:20;27.40;1.00
9885;DHT22;4981;50.966;4.842;2022-07-29T15:17:47;26.90;1.00
9885;DHT22;4981;50.966;4.842;2022-07-29T15:20:15;27.40;1.00
9885;DHT22;4981;50.966;4.842;2022-07-29T15:22:44;27.00;1.00
9885;DHT22;4981;50.966;4.842;2022-07-29T15:25:11;26.70;1.00
9885;DHT22;4981;50.966;4.842;2022-07-29T15:27:38;26.80;1.00
9885;DHT22;4981;50.966;4.842;2022-07-29T15:30:07;27.30;1.00
9885;DHT22;4981;50.966;4.842;2022-07-29T15:32:35;27.90;1.00
9885;DHT22;4981;50.966;4.842;2022-07-29T15:35:03;27.50;1.00
9885;DHT22;4981;50.966;4.842;2022-07-29T15:37:30;27.60;1.00
9885;DHT22;4981;50.966;4.842;2022-07-29T15:40:02;27.50;1.00
9885;DHT22;4981;50.966;4.842;2022-07-29T15:42:29;27.60;1.00
9885;DHT22;4981;50.966;4.842;2022-07-29T15:44:56;27.00;1.00
9885;DHT22;4981;50.966;4.842;2022-07-29T15:47:24;28.00;1.00
9885;DHT22;4981;50.966;4.842;2022-07-29T15:49:52;27.70;1.00
9885;DHT22;4981;50.966;4.842;2022-07-29T15:52:19;29.40;1.00
9885;DHT22;4981;50.966;4.842;2022-07-29T15:54:47;29.80;1.00
9885;DHT22;4981;50.966;4.842;2022-07-29T15:57:16;30.80;1.00
9885;DHT22;4981;50.966;4.842;2022-07-29T15:59:43;30.70;1.00
9885;DHT22;4981;50.966;4.842;2022-07-29T16:02:10;30.90;1.00
9885;DHT22;4981;50.966;4.842;2022-07-29T16:04:38;31.40;1.00
9885;DHT22;4981;50.966;4.842;2022-07-29T16:07:05;30.60;1.00
9885;DHT22;4981;50.966;4.842;2022-07-29T16:09:33;31.20;1.00
9885;DHT22;4981;50.966;4.842;2022-07-29T16:12:00;30.20;1.00
9885;DHT22;4981;50.966;4.842;2022-07-29T16:14:29;29.40;1.00
9885;DHT22;4981;50.966;4.842;2022-07-29T16:16:57;28.50;1.00
9885;DHT22;4981;50.966;4.842;2022-07-29T16:19:27;28.00;1.00
9885;DHT22;4981;50.966;4.842;2022-07-29T16:21:55;28.30;1.00
9885;DHT22;4981;50.966;4.842;2022-07-29T16:24:22;29.10;1.00
9885;DHT22;4981;50.966;4.842;2022-07-29T16:26:54;30.00;1.00
9885;DHT22;4981;50.966;4.842;2022-07-29T16:29:21;30.00;1.00
9885;DHT22;4981;50.966;4.842;2022-07-29T16:31:50;30.70;1.00
9885;DHT22;4981;50.966;4.842;2022-07-29T16:34:18;31.20;1.00
9885;DHT22;4981;50.966;4.842;2022-07-29T16:36:45;30.80;1.00
9885;DHT22;4981;50.966;4.842;2022-07-29T16:39:12;30.10;1.00
9885;DHT22;4981;50.966;4.842;2022-07-29T16:41:40;30.70;1.00